createdAt,value
2019-05-01T00:05:07.271Z,65.97
2019-05-01T00:10:11.407Z,65.85
2019-05-01T00:15:14.871Z,66.21
2019-05-01T00:20:18.334Z,66.26
2019-05-01T00:25:21.724Z,67.14
2019-05-01T00:30:29.941Z,66.92
2019-05-01T00:35:31.244Z,67.58
2019-05-01T00:40:34.874Z,67.68
2019-05-01T00:45:38.271Z,68.11
2019-05-01T00:50:41.951Z,68.74
2019-05-01T00:55:46.986Z,67.96
2019-05-01T01:00:54.814Z,68.06
2019-05-01T01:05:58.446Z,67.72
2019-05-01T01:11:01.842Z,67.86
2019-05-01T01:16:05.478Z,67.37
2019-05-01T01:21:08.942Z,67.75
2019-05-01T01:26:12.401Z,67.82
2019-05-01T01:31:15.866Z,67.90
2019-05-01T01:36:23.814Z,68.03
2019-05-01T01:41:27.345Z,67.45
2019-05-01T01:46:32.719Z,67.82
2019-05-01T01:51:36.249Z,67.39
2019-05-01T01:56:39.947Z,67.75
2019-05-01T02:01:59.840Z,67.87
2019-05-01T02:07:03.376Z,65.91
2019-05-01T02:12:06.836Z,66.89
2019-05-01T02:17:10.301Z,67.22
2019-05-01T02:22:13.699Z,67.69
2019-05-01T02:27:18.803Z,67.97
2019-05-01T02:32:23.609Z,67.42
2019-05-01T02:37:28.788Z,67.10
2019-05-01T02:42:35.122Z,67.43
2019-05-01T02:47:38.783Z,67.69
2019-05-01T02:52:43.718Z,67.43
2019-05-01T02:57:47.854Z,66.96
2019-05-01T03:02:51.923Z,66.83
2019-05-01T03:07:55.452Z,66.91
2019-05-01T03:12:59.189Z,67.12
2019-05-01T03:18:04.863Z,67.36
2019-05-01T03:23:29.042Z,67.53
2019-05-01T03:28:32.425Z,67.51
2019-05-01T03:33:36.195Z,67.38
2019-05-01T03:38:39.587Z,67.43
2019-05-01T03:43:43.359Z,66.94
2019-05-01T03:48:47.538Z,66.83
2019-05-01T03:53:51.065Z,67.17
2019-05-01T03:58:54.807Z,67.42
2019-05-01T04:04:00.009Z,67.22
2019-05-01T04:09:04.739Z,67.86
2019-05-01T04:14:08.570Z,67.84
2019-05-01T04:19:12.196Z,67.07
2019-05-01T04:24:16.068Z,67.59
2019-05-01T04:29:24.035Z,67.51
2019-05-01T04:34:38.260Z,67.79
2019-05-01T04:39:41.655Z,68.96
2019-05-01T04:44:45.298Z,68.81
2019-05-01T04:49:48.759Z,68.33
2019-05-01T04:54:52.316Z,68.61
2019-05-01T04:59:55.779Z,68.96
2019-05-01T05:04:59.240Z,69.23
2019-05-01T05:10:03.241Z,69.70
2019-05-01T05:15:17.918Z,69.96
2019-05-01T05:20:21.454Z,70.67
2019-05-01T05:25:25.123Z,71.69
2019-05-01T05:30:29.556Z,71.83
2019-05-01T05:35:35.292Z,71.75
2019-05-01T05:40:39.425Z,71.91
2019-05-01T05:45:43.261Z,72.16
2019-05-01T05:50:53.596Z,72.76
2019-05-01T05:56:01.676Z,72.73
2019-05-01T06:01:14.090Z,72.43
2019-05-01T06:06:22.170Z,72.38
2019-05-01T06:11:46.222Z,71.95
2019-05-01T06:16:54.180Z,72.49
2019-05-01T06:22:16.424Z,72.37
2019-05-01T06:27:20.187Z,72.57
2019-05-01T06:32:23.582Z,71.59
2019-05-01T06:37:47.851Z,70.87
2019-05-01T06:42:51.318Z,70.58
2019-05-01T06:48:05.210Z,70.47
2019-05-01T06:53:08.892Z,70.72
2019-05-01T06:58:14.875Z,69.90
2019-05-01T07:03:17.682Z,69.22
2019-05-01T07:08:24.774Z,69.03
2019-05-01T07:13:26.443Z,68.37
2019-05-01T07:18:29.939Z,68.26
2019-05-01T07:23:33.531Z,67.85
2019-05-01T07:28:38.832Z,67.40
2019-05-01T07:33:47.041Z,67.48
2019-05-01T07:38:49.834Z,65.96
2019-05-01T07:43:59.754Z,64.75
2019-05-01T07:49:03.865Z,64.67
2019-05-01T07:54:08.970Z,63.37
2019-05-01T07:59:12.489Z,63.48
2019-05-01T08:04:18.451Z,60.49
2019-05-01T08:09:21.243Z,59.45
2019-05-01T08:14:24.647Z,59.36
2019-05-01T08:19:47.480Z,59.42
2019-05-01T08:24:53.823Z,58.80
2019-05-01T08:30:00.299Z,58.93
2019-05-01T08:35:06.680Z,58.38
2019-05-01T08:40:10.150Z,58.92
2019-05-01T08:45:15.560Z,58.33
2019-05-01T08:50:24.852Z,57.72
2019-05-01T08:55:26.018Z,56.71
2019-05-01T09:00:31.055Z,57.27
2019-05-01T09:05:34.535Z,56.97
2019-05-01T09:10:37.937Z,56.40
2019-05-01T09:15:43.767Z,55.27
2019-05-01T09:20:48.332Z,54.45
2019-05-01T09:25:59.080Z,53.26
2019-05-01T09:31:04.114Z,52.99
2019-05-01T09:36:07.516Z,51.14
2019-05-01T09:41:10.982Z,48.72
2019-05-01T09:46:14.382Z,47.92
2019-05-01T09:51:21.926Z,48.92
2019-05-01T09:56:29.691Z,46.92
2019-05-01T10:01:33.399Z,45.50
2019-05-01T10:06:36.970Z,44.97
2019-05-01T10:11:41.906Z,46.07
2019-05-01T10:16:45.390Z,44.24
2019-05-01T10:21:48.785Z,44.01
2019-05-01T10:26:55.186Z,42.66
2019-05-01T10:32:02.992Z,42.22
2019-05-01T10:37:06.391Z,43.30
2019-05-01T10:42:09.787Z,43.24
2019-05-01T10:47:13.182Z,43.84
2019-05-01T10:52:16.580Z,41.89
2019-05-01T10:57:19.990Z,42.25
2019-05-01T11:02:23.523Z,41.41
2019-05-01T11:07:26.917Z,40.72
2019-05-01T11:12:30.542Z,41.97
2019-05-01T11:17:33.938Z,38.88
2019-05-01T11:22:37.338Z,40.29
2019-05-01T11:27:40.740Z,39.94
2019-05-01T11:33:03.575Z,40.96
2019-05-01T11:38:08.591Z,41.33
2019-05-01T11:43:11.991Z,40.35
2019-05-01T11:48:15.391Z,40.79
2019-05-01T11:53:18.798Z,39.95
2019-05-01T11:58:22.192Z,39.66
2019-05-01T12:03:25.590Z,39.05
2019-05-01T12:08:28.993Z,38.66
2019-05-01T12:13:43.186Z,39.85
2019-05-01T12:18:37.516Z,39.65
2019-05-01T12:23:40.915Z,39.85
2019-05-01T12:28:44.319Z,40.51
2019-05-01T12:33:47.718Z,38.75
2019-05-01T12:38:51.116Z,39.99
2019-05-01T12:43:54.687Z,40.01
2019-05-01T12:48:58.085Z,39.82
2019-05-01T12:54:19.014Z,39.32
2019-05-01T12:59:22.419Z,40.59
2019-05-01T13:04:25.824Z,39.80
2019-05-01T13:09:29.228Z,40.22
2019-05-01T13:14:32.629Z,39.02
2019-05-01T13:19:36.035Z,38.21
2019-05-01T13:24:41.072Z,37.74
2019-05-01T13:29:48.935Z,37.26
2019-05-01T13:34:52.403Z,39.95
2019-05-01T13:39:55.801Z,40.61
2019-05-01T13:44:59.501Z,40.61
2019-05-01T13:50:03.341Z,40.72
2019-05-01T13:55:07.081Z,41.09
2019-05-01T14:00:10.617Z,41.72
2019-05-01T14:05:14.160Z,40.51
2019-05-01T14:10:18.000Z,40.39
2019-05-01T14:15:21.398Z,40.88
2019-05-01T14:20:32.394Z,39.94
2019-05-01T14:25:53.371Z,39.91
2019-05-01T14:30:57.011Z,38.66
2019-05-01T14:36:00.405Z,38.38
2019-05-01T14:41:03.870Z,37.91
2019-05-01T14:46:07.266Z,37.18
2019-05-01T14:51:10.666Z,37.11
2019-05-01T14:56:14.139Z,36.14
2019-05-01T15:01:17.540Z,36.48
2019-05-01T15:06:21.181Z,37.18
2019-05-01T15:11:24.576Z,36.71
2019-05-01T15:16:29.870Z,36.28
2019-05-01T15:21:33.283Z,36.82
2019-05-01T15:26:36.685Z,36.90
2019-05-01T15:31:40.089Z,36.36
2019-05-01T15:36:43.507Z,36.76
2019-05-01T15:42:04.343Z,35.72
2019-05-01T15:47:07.747Z,36.39
2019-05-01T15:52:11.149Z,36.66
2019-05-01T15:57:14.782Z,35.93
2019-05-01T16:02:18.417Z,35.95
2019-05-01T16:07:21.824Z,36.44
2019-05-01T16:12:26.861Z,36.32
2019-05-01T16:17:30.262Z,35.42
2019-05-01T16:22:33.662Z,36.38
2019-05-01T16:27:37.058Z,36.76
2019-05-01T16:32:40.454Z,36.26
2019-05-01T16:37:43.855Z,35.82
2019-05-01T16:42:47.254Z,36.16
2019-05-01T16:47:51.006Z,36.25
2019-05-01T16:52:54.477Z,36.09
2019-05-01T16:57:57.875Z,35.70
2019-05-01T17:03:14.788Z,36.01
2019-05-01T17:08:36.989Z,36.85
2019-05-01T17:13:40.558Z,36.50
2019-05-01T17:18:44.200Z,35.94
2019-05-01T17:23:47.830Z,36.60
2019-05-01T17:28:51.236Z,36.29
2019-05-01T17:33:55.564Z,37.81
2019-05-01T17:39:00.057Z,36.88
2019-05-01T17:44:03.599Z,36.61
2019-05-01T17:49:09.292Z,36.77
2019-05-01T17:54:12.120Z,38.32
2019-05-01T17:59:15.518Z,39.57
2019-05-01T18:04:20.555Z,39.64
2019-05-01T18:09:23.950Z,41.46
2019-05-01T18:14:27.351Z,42.66
2019-05-01T18:19:30.756Z,44.16
2019-05-01T18:24:39.029Z,45.56
2019-05-01T18:29:44.649Z,47.21
2019-05-01T18:34:48.086Z,48.66
2019-05-01T18:39:52.449Z,50.00
2019-05-01T18:44:56.085Z,50.50
2019-05-01T18:49:59.482Z,50.68
2019-05-01T18:55:03.251Z,51.30
2019-05-01T19:00:07.089Z,51.99
2019-05-01T19:05:10.755Z,52.37
2019-05-01T19:10:14.223Z,52.90
2019-05-01T19:15:17.615Z,53.35
2019-05-01T19:20:21.085Z,53.52
2019-05-01T19:25:24.522Z,54.44
2019-05-01T19:30:28.132Z,54.91
2019-05-01T19:35:34.280Z,55.10
2019-05-01T19:40:36.665Z,55.58
2019-05-01T19:45:40.105Z,56.02
2019-05-01T19:50:47.830Z,56.71
2019-05-01T19:55:48.607Z,57.06
2019-05-01T20:00:54.751Z,57.25
2019-05-01T20:05:59.448Z,57.69
2019-05-01T20:11:03.633Z,58.08
2019-05-01T20:16:08.412Z,58.60
2019-05-01T20:21:11.978Z,58.91
2019-05-01T20:26:15.373Z,58.75
2019-05-01T20:31:20.861Z,59.17
2019-05-01T20:36:24.126Z,59.66
2019-05-01T20:41:27.521Z,59.77
2019-05-01T20:46:30.931Z,59.54
2019-05-01T20:51:34.330Z,59.80
2019-05-01T20:56:47.800Z,60.30
2019-05-01T21:01:51.448Z,60.56
2019-05-01T21:07:08.547Z,60.63
2019-05-01T21:12:11.943Z,60.42
2019-05-01T21:17:15.634Z,60.47
2019-05-01T21:22:19.006Z,60.64
2019-05-01T21:27:24.275Z,60.95
2019-05-01T21:32:27.728Z,61.24
2019-05-01T21:37:31.107Z,61.51
2019-05-01T21:42:34.508Z,61.64
2019-05-01T21:47:37.913Z,61.79
2019-05-01T21:52:43.627Z,61.89
2019-05-01T21:57:50.016Z,62.13
2019-05-01T22:02:52.143Z,62.22
2019-05-01T22:07:58.693Z,62.33
2019-05-01T22:13:00.767Z,62.51
2019-05-01T22:18:06.043Z,62.63
2019-05-01T22:23:25.459Z,62.76
2019-05-01T22:28:30.497Z,62.98
2019-05-01T22:33:34.563Z,62.70
2019-05-01T22:38:37.965Z,62.56
2019-05-01T22:43:41.503Z,62.38
2019-05-01T22:48:44.907Z,62.44
2019-05-01T22:53:49.947Z,62.78
2019-05-01T22:58:53.415Z,62.88
2019-05-01T23:03:58.451Z,63.32
2019-05-01T23:09:01.918Z,62.83
2019-05-01T23:14:05.628Z,62.09
2019-05-01T23:19:09.096Z,61.83
2019-05-01T23:24:12.495Z,62.03
2019-05-01T23:29:15.886Z,62.64
2019-05-01T23:34:21.173Z,62.99
2019-05-01T23:39:24.774Z,63.23
2019-05-01T23:44:28.174Z,63.69
2019-05-01T23:49:31.577Z,63.97
2019-05-01T23:54:35.219Z,64.19
2019-05-01T23:59:38.614Z,64.40
